createdAt,value
2023-05-11T00:01:09.895Z,0.50
2023-05-11T00:03:37.116Z,0.70
2023-05-11T00:06:04.324Z,0.63
2023-05-11T00:08:31.120Z,0.68
2023-05-11T00:11:00.613Z,0.55
2023-05-11T00:13:28.856Z,0.55
2023-05-11T00:15:55.745Z,0.60
2023-05-11T00:18:22.503Z,0.47
2023-05-11T00:20:49.249Z,0.73
2023-05-11T00:23:16.164Z,0.43
2023-05-11T00:25:42.877Z,0.40
2023-05-11T00:28:10.667Z,0.60
2023-05-11T00:30:37.433Z,0.80
2023-05-11T00:33:04.154Z,0.60
2023-05-11T00:35:31.853Z,0.50
2023-05-11T00:37:59.155Z,0.70
2023-05-11T00:40:26.104Z,0.52
2023-05-11T00:42:52.799Z,0.40
2023-05-11T00:45:22.079Z,0.80
2023-05-11T00:47:48.762Z,0.63
2023-05-11T00:50:15.796Z,0.50
2023-05-11T00:52:42.997Z,0.80
2023-05-11T00:55:11.479Z,0.70
2023-05-11T00:57:38.881Z,0.77
2023-05-11T01:00:08.951Z,0.50
2023-05-11T01:02:36.128Z,0.85
2023-05-11T01:05:02.928Z,0.60
2023-05-11T01:07:38.550Z,0.85
2023-05-11T01:10:54.326Z,0.80
2023-05-11T01:13:48.520Z,0.70
2023-05-11T01:16:20.805Z,0.70
2023-05-11T01:19:04.184Z,0.77
2023-05-11T01:21:33.786Z,0.90
2023-05-11T01:24:06.219Z,1.00
2023-05-11T01:26:46.414Z,1.30
2023-05-11T01:30:01.583Z,1.35
2023-05-11T01:32:33.278Z,1.10
2023-05-11T01:35:17.880Z,1.10
2023-05-11T01:37:57.573Z,1.20
2023-05-11T01:40:27.983Z,1.38
2023-05-11T01:43:18.785Z,1.20
2023-05-11T01:45:50.510Z,1.02
2023-05-11T01:48:22.792Z,1.17
2023-05-11T01:50:51.170Z,1.30
2023-05-11T01:53:19.788Z,1.10
2023-05-11T01:55:48.247Z,0.93
2023-05-11T01:58:16.970Z,1.20
2023-05-11T02:00:45.387Z,1.25
2023-05-11T02:03:13.989Z,1.20
2023-05-11T02:05:42.813Z,1.05
2023-05-11T02:08:10.911Z,1.40
2023-05-11T02:10:39.829Z,1.20
2023-05-11T02:13:07.525Z,1.13
2023-05-11T02:15:37.591Z,1.13
2023-05-11T02:18:06.760Z,1.00
2023-05-11T02:20:34.693Z,1.00
2023-05-11T02:23:02.273Z,1.38
2023-05-11T02:25:31.331Z,1.00
2023-05-11T02:27:57.981Z,1.10
2023-05-11T02:30:27.652Z,1.02
2023-05-11T02:32:58.303Z,0.70
2023-05-11T02:35:36.441Z,0.68
2023-05-11T02:38:04.466Z,1.00
2023-05-11T02:40:34.476Z,0.90
2023-05-11T02:43:08.488Z,1.17
2023-05-11T02:45:36.731Z,1.30
2023-05-11T02:48:10.104Z,1.15
2023-05-11T02:50:39.899Z,1.20
2023-05-11T02:53:14.363Z,1.10
2023-05-11T02:55:42.223Z,1.17
2023-05-11T02:58:09.416Z,1.17
2023-05-11T03:00:36.209Z,1.20
2023-05-11T03:03:03.991Z,1.27
2023-05-11T03:05:30.907Z,1.20
2023-05-11T03:07:58.905Z,1.15
2023-05-11T03:10:27.732Z,1.15
2023-05-11T03:12:54.936Z,1.00
2023-05-11T03:15:22.265Z,1.00
2023-05-11T03:17:53.158Z,1.20
2023-05-11T03:20:22.150Z,1.00
2023-05-11T03:22:49.801Z,1.20
2023-05-11T03:25:17.634Z,0.80
2023-05-11T03:27:46.198Z,1.10
2023-05-11T03:30:15.731Z,1.17
2023-05-11T03:32:42.637Z,1.00
2023-05-11T03:35:09.853Z,1.05
2023-05-11T03:37:38.277Z,1.45
2023-05-11T03:40:07.496Z,1.02
2023-05-11T03:42:35.326Z,0.90
2023-05-11T03:45:04.377Z,1.20
2023-05-11T03:47:32.858Z,1.13
2023-05-11T03:50:00.974Z,1.48
2023-05-11T03:52:27.941Z,1.35
2023-05-11T03:54:54.680Z,1.30
2023-05-11T03:57:21.500Z,1.40
2023-05-11T03:59:48.146Z,1.42
2023-05-11T04:02:15.054Z,1.30
2023-05-11T04:04:41.797Z,1.10
2023-05-11T04:07:08.462Z,1.40
2023-05-11T04:09:35.115Z,1.48
2023-05-11T04:12:01.750Z,1.25
2023-05-11T04:14:28.358Z,1.80
2023-05-11T04:16:54.965Z,1.38
2023-05-11T04:19:21.716Z,1.42
2023-05-11T04:21:48.369Z,1.30
2023-05-11T04:24:15.061Z,1.50
2023-05-11T04:26:41.706Z,1.65
2023-05-11T04:29:09.441Z,1.52
2023-05-11T04:31:36.312Z,1.48
2023-05-11T04:34:03.046Z,1.40
2023-05-11T04:36:29.975Z,1.20
2023-05-11T04:38:56.628Z,1.30
2023-05-11T04:41:23.912Z,1.33
2023-05-11T04:43:50.725Z,1.15
2023-05-11T04:46:17.895Z,1.13
2023-05-11T04:48:44.542Z,1.58
2023-05-11T04:51:11.282Z,1.40
2023-05-11T04:53:37.910Z,1.30
2023-05-11T04:56:04.822Z,1.20
2023-05-11T04:58:31.457Z,1.20
2023-05-11T05:00:58.163Z,1.20
2023-05-11T05:03:24.902Z,1.42
2023-05-11T05:05:51.637Z,1.38
2023-05-11T05:08:18.691Z,1.80
2023-05-11T05:10:46.831Z,1.30
2023-05-11T05:13:13.618Z,1.35
2023-05-11T05:15:40.324Z,1.50
2023-05-11T05:18:06.961Z,1.42
2023-05-11T05:20:35.040Z,1.40
2023-05-11T05:23:02.255Z,1.15
2023-05-11T05:25:28.879Z,1.23
2023-05-11T05:27:55.618Z,1.40
2023-05-11T05:30:22.332Z,1.48
2023-05-11T05:32:49.140Z,1.73
2023-05-11T05:35:15.961Z,1.38
2023-05-11T05:37:42.622Z,1.15
2023-05-11T05:40:10.066Z,1.67
2023-05-11T05:42:36.768Z,1.58
2023-05-11T05:45:03.760Z,1.60
2023-05-11T05:47:30.507Z,1.50
2023-05-11T05:49:57.273Z,1.70
2023-05-11T05:52:23.890Z,1.40
2023-05-11T05:54:50.488Z,1.35
2023-05-11T05:57:17.275Z,1.90
2023-05-11T05:59:43.915Z,2.42
2023-05-11T06:02:13.064Z,1.33
2023-05-11T06:04:39.874Z,1.95
2023-05-11T06:07:06.575Z,1.80
2023-05-11T06:09:33.190Z,2.15
2023-05-11T06:11:59.936Z,1.65
2023-05-11T06:14:26.563Z,1.83
2023-05-11T06:16:53.659Z,1.50
2023-05-11T06:19:20.345Z,1.77
2023-05-11T06:21:48.517Z,1.50
2023-05-11T06:24:18.126Z,1.50
2023-05-11T06:26:44.735Z,1.48
2023-05-11T06:29:11.415Z,1.48
2023-05-11T06:31:38.129Z,1.40
2023-05-11T06:34:04.909Z,1.33
2023-05-11T06:36:32.277Z,1.52
2023-05-11T06:38:59.024Z,1.42
2023-05-11T06:41:25.948Z,1.25
2023-05-11T06:43:52.737Z,1.42
2023-05-11T06:46:19.689Z,1.60
2023-05-11T06:48:46.417Z,1.63
2023-05-11T06:51:13.047Z,1.02
2023-05-11T06:53:39.742Z,1.33
2023-05-11T06:56:07.114Z,1.33
2023-05-11T06:58:34.982Z,1.15
2023-05-11T07:01:02.355Z,1.38
2023-05-11T07:03:29.102Z,1.30
2023-05-11T07:05:55.892Z,1.50
2023-05-11T07:08:22.565Z,1.20
2023-05-11T07:10:49.262Z,1.30
2023-05-11T07:13:15.971Z,1.10
2023-05-11T07:15:42.684Z,1.20
2023-05-11T07:18:09.413Z,1.17
2023-05-11T07:20:40.793Z,1.17
2023-05-11T07:23:07.400Z,1.13
2023-05-11T07:25:34.077Z,1.40
2023-05-11T07:28:00.700Z,1.17
2023-05-11T07:30:27.647Z,1.33
2023-05-11T07:32:57.393Z,1.52
2023-05-11T07:35:24.399Z,1.27
2023-05-11T07:37:51.140Z,1.27
2023-05-11T07:40:18.030Z,1.15
2023-05-11T07:42:44.895Z,1.13
2023-05-11T07:45:11.944Z,1.17
2023-05-11T07:47:38.694Z,1.20
2023-05-11T07:50:06.093Z,1.95
2023-05-11T07:52:32.747Z,1.42
2023-05-11T07:54:59.455Z,1.42
2023-05-11T07:57:26.114Z,1.30
2023-05-11T07:59:52.797Z,1.10
2023-05-11T08:02:19.498Z,1.20
2023-05-11T08:04:46.558Z,1.17
2023-05-11T08:07:13.638Z,1.13
2023-05-11T08:09:40.284Z,1.35
2023-05-11T08:12:07.144Z,1.10
2023-05-11T08:14:33.864Z,1.40
2023-05-11T08:17:00.822Z,1.00
2023-05-11T08:19:27.487Z,1.20
2023-05-11T08:21:54.280Z,1.20
2023-05-11T08:24:21.023Z,0.80
2023-05-11T08:26:48.519Z,1.00
2023-05-11T08:29:18.185Z,0.98
2023-05-11T08:31:44.860Z,0.90
2023-05-11T08:34:19.179Z,0.80
2023-05-11T08:36:46.989Z,1.30
2023-05-11T08:39:13.956Z,1.00
2023-05-11T08:41:40.813Z,2.17
2023-05-11T08:44:08.041Z,0.80
2023-05-11T08:46:39.978Z,1.08
2023-05-11T08:49:08.199Z,1.20
2023-05-11T08:51:34.933Z,1.00
2023-05-11T08:54:01.601Z,0.85
2023-05-11T08:56:33.420Z,0.93
2023-05-11T08:59:01.586Z,0.88
2023-05-11T09:01:29.452Z,0.98
2023-05-11T09:03:57.473Z,0.77
2023-05-11T09:06:25.659Z,0.88
2023-05-11T09:08:53.363Z,0.88
2023-05-11T09:11:20.118Z,0.95
2023-05-11T09:13:47.180Z,0.88
2023-05-11T09:18:50.884Z,0.77
2023-05-11T09:21:18.318Z,0.77
2023-05-11T09:23:45.007Z,0.80
2023-05-11T09:26:21.501Z,1.65
2023-05-11T09:29:02.363Z,1.10
2023-05-11T09:31:45.551Z,0.93
2023-05-11T09:34:16.607Z,1.27
2023-05-11T09:36:44.736Z,1.00
2023-05-11T09:41:42.066Z,1.23
2023-05-11T09:44:10.925Z,1.10
2023-05-11T09:46:42.885Z,1.10
2023-05-11T09:49:10.589Z,0.98
2023-05-11T09:51:43.376Z,1.23
2023-05-11T09:54:21.466Z,1.50
2023-05-11T09:56:56.618Z,1.42
2023-05-11T09:59:38.458Z,1.70
2023-05-11T10:02:31.048Z,1.45
2023-05-11T10:05:01.297Z,1.38
2023-05-11T10:07:29.178Z,1.20
2023-05-11T10:09:59.261Z,1.90
2023-05-11T10:12:27.315Z,1.58
2023-05-11T10:14:58.826Z,1.92
2023-05-11T10:17:25.965Z,2.05
2023-05-11T10:19:56.266Z,2.47
2023-05-11T10:22:25.547Z,2.10
2023-05-11T10:24:53.129Z,1.75
2023-05-11T10:27:20.961Z,1.75
2023-05-11T10:29:48.411Z,2.50
2023-05-11T10:32:17.877Z,2.50
2023-05-11T10:34:46.477Z,1.73
2023-05-11T10:37:14.869Z,1.75
2023-05-11T10:39:42.887Z,1.67
2023-05-11T10:42:18.476Z,1.38
2023-05-11T10:45:14.111Z,1.90
2023-05-11T10:47:52.427Z,1.95
2023-05-11T10:51:00.663Z,1.83
2023-05-11T10:54:06.390Z,2.30
2023-05-11T10:57:07.369Z,1.90
2023-05-11T10:59:58.034Z,1.77
2023-05-11T11:02:31.618Z,1.60
2023-05-11T11:05:02.138Z,1.90
2023-05-11T11:07:28.983Z,1.63
2023-05-11T11:10:00.772Z,1.80
2023-05-11T11:12:29.659Z,1.70
2023-05-11T11:14:59.232Z,2.10
2023-05-11T11:17:31.301Z,1.67
2023-05-11T11:22:34.685Z,1.95
2023-05-11T11:25:12.535Z,2.28
2023-05-11T11:27:44.823Z,1.88
2023-05-11T11:30:31.508Z,2.03
2023-05-11T11:33:21.440Z,1.70
2023-05-11T11:35:48.899Z,1.50
2023-05-11T11:38:20.133Z,1.52
2023-05-11T11:40:54.450Z,2.10
2023-05-11T11:43:26.061Z,1.63
2023-05-11T11:46:00.441Z,1.63
2023-05-11T11:48:41.494Z,1.67
2023-05-11T11:51:15.710Z,1.80
2023-05-11T11:53:43.719Z,2.05
2023-05-11T11:56:16.243Z,1.90
2023-05-11T11:58:46.108Z,1.90
2023-05-11T12:01:17.830Z,2.05
2023-05-11T12:03:47.142Z,1.52
2023-05-11T12:06:14.930Z,1.50
2023-05-11T12:08:43.386Z,1.40
2023-05-11T12:11:10.017Z,1.90
2023-05-11T12:13:37.076Z,1.73
2023-05-11T12:16:13.824Z,1.48
2023-05-11T12:18:41.995Z,1.83
2023-05-11T12:21:34.873Z,1.90
2023-05-11T12:24:04.340Z,1.77
2023-05-11T12:26:32.882Z,1.85
2023-05-11T12:29:13.877Z,2.55
2023-05-11T12:31:42.777Z,1.75
2023-05-11T12:34:17.417Z,2.00
2023-05-11T12:36:48.665Z,2.20
2023-05-11T12:39:23.124Z,1.97
2023-05-11T12:41:51.416Z,1.98
2023-05-11T12:44:19.272Z,1.33
2023-05-11T12:46:47.048Z,1.45
2023-05-11T12:52:08.727Z,2.10
2023-05-11T12:54:40.616Z,1.80
2023-05-11T12:57:33.520Z,1.48
2023-05-11T13:00:11.486Z,1.63
2023-05-11T13:02:56.232Z,2.00
2023-05-11T13:05:27.404Z,1.50
2023-05-11T13:08:06.126Z,1.50
2023-05-11T13:10:32.785Z,1.60
2023-05-11T13:12:59.652Z,1.60
2023-05-11T13:15:28.481Z,1.58
2023-05-11T13:18:00.179Z,1.50
2023-05-11T13:20:27.476Z,1.23
2023-05-11T13:23:11.802Z,1.70
2023-05-11T13:25:50.648Z,1.63
2023-05-11T13:28:19.729Z,1.70
2023-05-11T13:30:47.177Z,1.50
2023-05-11T13:33:13.976Z,1.67
2023-05-11T13:35:43.984Z,1.35
2023-05-11T13:38:11.878Z,1.40
2023-05-11T13:40:38.919Z,1.38
2023-05-11T13:43:05.711Z,1.30
2023-05-11T13:45:32.316Z,0.93
2023-05-11T13:47:58.983Z,1.02
2023-05-11T13:50:26.687Z,1.40
2023-05-11T13:52:53.893Z,1.15
2023-05-11T13:55:21.502Z,1.45
2023-05-11T13:57:48.502Z,1.27
2023-05-11T14:00:16.019Z,1.45
2023-05-11T14:02:44.335Z,1.20
2023-05-11T14:05:11.332Z,1.40
2023-05-11T14:07:47.189Z,1.58
2023-05-11T14:10:16.413Z,1.35
2023-05-11T14:12:43.300Z,1.52
2023-05-11T14:15:10.456Z,1.45
2023-05-11T14:17:37.656Z,1.00
2023-05-11T14:20:06.005Z,1.20
2023-05-11T14:22:32.733Z,1.10
2023-05-11T14:24:59.959Z,0.98
2023-05-11T14:27:26.766Z,0.90
2023-05-11T14:29:53.954Z,0.98
2023-05-11T14:32:20.989Z,0.93
2023-05-11T14:34:48.712Z,1.58
2023-05-11T14:37:15.608Z,1.10
2023-05-11T14:39:42.260Z,1.83
2023-05-11T14:42:09.893Z,1.23
2023-05-11T14:44:36.746Z,1.10
2023-05-11T14:47:03.619Z,1.35
2023-05-11T14:49:30.246Z,1.17
2023-05-11T14:51:57.749Z,1.13
2023-05-11T14:54:24.455Z,1.15
2023-05-11T14:56:55.844Z,1.20
2023-05-11T14:59:26.366Z,1.30
2023-05-11T15:01:53.267Z,1.00
2023-05-11T15:04:20.453Z,1.05
2023-05-11T15:06:47.430Z,1.10
2023-05-11T15:09:14.412Z,1.48
2023-05-11T15:11:41.170Z,1.13
2023-05-11T15:14:07.934Z,1.20
2023-05-11T15:16:34.645Z,1.00
2023-05-11T15:19:01.478Z,1.13
2023-05-11T15:21:28.213Z,1.10
2023-05-11T15:23:54.931Z,2.03
2023-05-11T15:26:22.768Z,1.42
2023-05-11T15:28:50.068Z,1.25
2023-05-11T15:31:17.009Z,1.20
2023-05-11T15:33:44.546Z,1.02
2023-05-11T15:36:15.473Z,1.50
2023-05-11T15:38:43.642Z,0.90
2023-05-11T15:41:10.492Z,0.70
2023-05-11T15:43:37.262Z,0.88
2023-05-11T15:46:04.838Z,1.10
2023-05-11T15:48:31.825Z,1.00
2023-05-11T15:51:01.951Z,1.15
2023-05-11T15:53:28.862Z,1.35
2023-05-11T15:55:56.564Z,1.00
2023-05-11T15:58:23.352Z,1.30
2023-05-11T16:00:50.162Z,1.35
2023-05-11T16:03:17.562Z,0.93
2023-05-11T16:05:45.462Z,0.98
2023-05-11T16:08:13.143Z,1.30
2023-05-11T16:10:39.962Z,1.10
2023-05-11T16:13:06.654Z,0.98
2023-05-11T16:15:34.232Z,0.80
2023-05-11T16:18:03.958Z,1.17
2023-05-11T16:20:31.592Z,1.30
2023-05-11T16:22:58.362Z,0.80
2023-05-11T16:25:25.156Z,0.77
2023-05-11T16:27:51.852Z,1.10
2023-05-11T16:30:25.056Z,1.75
2023-05-11T16:32:53.138Z,1.10
2023-05-11T16:35:20.416Z,1.25
2023-05-11T16:37:47.912Z,1.50
2023-05-11T16:40:15.295Z,0.90
2023-05-11T16:42:42.281Z,1.20
2023-05-11T16:45:09.443Z,1.00
2023-05-11T16:47:36.156Z,1.27
2023-05-11T16:50:02.867Z,1.20
2023-05-11T16:52:33.787Z,1.35
2023-05-11T16:55:00.412Z,1.20
2023-05-11T16:57:27.105Z,1.00
2023-05-11T16:59:53.734Z,1.35
2023-05-11T17:02:21.164Z,1.33
2023-05-11T17:04:48.033Z,1.17
2023-05-11T17:07:15.635Z,1.35
2023-05-11T17:09:43.070Z,1.17
2023-05-11T17:12:12.720Z,1.17
2023-05-11T17:14:39.425Z,1.13
2023-05-11T17:17:07.929Z,1.20
2023-05-11T17:19:34.638Z,1.25
2023-05-11T17:22:01.327Z,1.67
2023-05-11T17:24:28.699Z,1.30
2023-05-11T17:26:58.663Z,1.42
2023-05-11T17:29:25.390Z,1.23
2023-05-11T17:31:52.649Z,1.30
2023-05-11T17:34:20.986Z,1.20
2023-05-11T17:36:48.953Z,1.33
2023-05-11T17:39:17.003Z,1.40
2023-05-11T17:41:43.851Z,1.40
2023-05-11T17:44:10.640Z,1.35
2023-05-11T17:46:37.418Z,1.40
2023-05-11T17:49:04.156Z,1.40
2023-05-11T17:53:57.853Z,1.30
2023-05-11T17:56:24.576Z,1.58
2023-05-11T17:58:51.623Z,1.05
2023-05-11T18:01:19.512Z,1.60
2023-05-11T18:03:48.574Z,1.50
2023-05-11T18:06:16.361Z,1.33
2023-05-11T18:08:43.899Z,1.40
2023-05-11T18:11:12.821Z,1.33
2023-05-11T18:13:39.825Z,1.40
2023-05-11T18:16:07.210Z,1.63
2023-05-11T18:18:34.238Z,1.60
2023-05-11T18:21:08.032Z,1.50
2023-05-11T18:23:34.715Z,1.40
2023-05-11T18:26:01.462Z,2.40
2023-05-11T18:28:28.214Z,2.20
2023-05-11T18:30:55.025Z,1.50
2023-05-11T18:33:22.116Z,1.40
2023-05-11T18:35:51.310Z,1.48
2023-05-11T18:38:18.079Z,2.25
2023-05-11T18:40:44.950Z,2.85
2023-05-11T18:43:11.726Z,2.97
2023-05-11T18:45:40.758Z,1.70
2023-05-11T18:48:07.559Z,1.40
2023-05-11T18:50:34.282Z,1.60
2023-05-11T18:53:02.135Z,1.58
2023-05-11T18:55:30.796Z,10.00
2023-05-11T18:58:01.615Z,3.25
2023-05-11T19:00:28.843Z,1.55
2023-05-11T19:02:55.624Z,8.20
2023-05-11T19:05:22.356Z,2.00
2023-05-11T19:07:49.077Z,3.83
2023-05-11T19:10:18.071Z,30.80
2023-05-11T19:12:44.905Z,2.03
2023-05-11T19:15:11.724Z,6.72
2023-05-11T19:17:38.498Z,3.28
2023-05-11T19:20:05.938Z,17.85
2023-05-11T19:22:33.565Z,9.07
2023-05-11T19:25:00.833Z,15.23
2023-05-11T19:27:27.572Z,18.75
2023-05-11T19:29:54.200Z,31.67
2023-05-11T19:32:23.256Z,17.73
2023-05-11T19:34:50.002Z,2.92
2023-05-11T19:37:16.645Z,6.57
2023-05-11T19:39:44.014Z,8.63
2023-05-11T19:42:11.152Z,12.00
2023-05-11T19:44:43.256Z,8.07
2023-05-11T19:49:37.394Z,7.32
2023-05-11T19:52:04.385Z,2.15
2023-05-11T19:54:31.030Z,4.00
2023-05-11T19:56:59.676Z,7.80
2023-05-11T19:59:32.526Z,5.72
2023-05-11T20:02:03.655Z,2.85
2023-05-11T20:04:31.021Z,3.65
2023-05-11T20:06:57.692Z,3.25
2023-05-11T20:09:27.439Z,1.92
2023-05-11T20:11:54.145Z,2.55
2023-05-11T20:14:20.797Z,2.00
2023-05-11T20:16:47.499Z,2.03
2023-05-11T20:19:14.237Z,2.30
2023-05-11T20:21:41.593Z,2.15
2023-05-11T20:24:08.418Z,7.47
2023-05-11T20:26:36.923Z,2.47
2023-05-11T20:29:03.840Z,2.28
2023-05-11T20:31:30.672Z,1.90
2023-05-11T20:36:26.952Z,2.40
2023-05-11T20:38:54.029Z,3.85
2023-05-11T20:41:22.037Z,2.20
2023-05-11T20:43:48.753Z,1.80
2023-05-11T20:46:15.768Z,2.85
2023-05-11T20:48:44.669Z,2.50
2023-05-11T20:51:14.870Z,3.80
2023-05-11T20:53:41.552Z,3.00
2023-05-11T20:56:10.082Z,2.85
2023-05-11T20:58:36.790Z,2.88
2023-05-11T21:01:03.679Z,3.00
2023-05-11T21:03:30.522Z,2.95
2023-05-11T21:05:57.276Z,3.00
2023-05-11T21:08:23.948Z,2.97
2023-05-11T21:10:50.588Z,1.83
2023-05-11T21:13:17.209Z,2.20
2023-05-11T21:15:43.838Z,2.35
2023-05-11T21:18:10.550Z,2.22
2023-05-11T21:20:37.292Z,2.20
2023-05-11T21:23:04.128Z,2.80
2023-05-11T21:25:30.908Z,2.70
2023-05-11T21:27:57.636Z,2.42
2023-05-11T21:30:24.305Z,2.28
2023-05-11T21:32:51.000Z,3.88
2023-05-11T21:35:18.130Z,2.67
2023-05-11T21:37:49.276Z,2.42
2023-05-11T21:40:18.036Z,2.83
2023-05-11T21:42:44.977Z,3.30
2023-05-11T21:45:12.115Z,3.08
2023-05-11T21:47:39.290Z,2.55
2023-05-11T21:50:07.658Z,3.20
2023-05-11T21:52:34.332Z,2.67
2023-05-11T21:55:01.229Z,3.33
2023-05-11T21:57:27.954Z,3.28
2023-05-11T21:59:54.627Z,3.67
2023-05-11T22:02:21.323Z,3.65
2023-05-11T22:04:48.122Z,3.85
2023-05-11T22:07:14.859Z,3.30
2023-05-11T22:09:41.561Z,4.30
2023-05-11T22:12:08.676Z,3.65
2023-05-11T22:14:37.111Z,4.65
2023-05-11T22:17:03.854Z,3.67
2023-05-11T22:19:30.522Z,4.10
2023-05-11T22:21:57.128Z,3.78
2023-05-11T22:24:26.869Z,4.05
2023-05-11T22:26:54.237Z,3.67
2023-05-11T22:29:21.756Z,4.40
2023-05-11T22:31:49.239Z,3.65
2023-05-11T22:34:16.129Z,3.83
2023-05-11T22:36:42.801Z,3.20
2023-05-11T22:39:11.150Z,3.67
2023-05-11T22:41:37.944Z,4.45
2023-05-11T22:44:04.817Z,3.97
2023-05-11T22:46:31.473Z,5.00
2023-05-11T22:48:58.165Z,5.03
2023-05-11T22:51:24.863Z,4.50
2023-05-11T22:53:52.078Z,4.07
2023-05-11T22:56:18.727Z,4.38
2023-05-11T22:58:45.419Z,5.15
2023-05-11T23:01:12.413Z,4.90
2023-05-11T23:03:39.229Z,5.03
2023-05-11T23:06:06.040Z,5.47
2023-05-11T23:08:32.673Z,4.75
2023-05-11T23:10:59.408Z,5.45
2023-05-11T23:13:26.290Z,5.57
2023-05-11T23:15:52.937Z,6.30
2023-05-11T23:18:19.825Z,5.65
2023-05-11T23:20:46.761Z,7.63
2023-05-11T23:23:13.487Z,7.03
2023-05-11T23:25:40.331Z,6.68
2023-05-11T23:28:11.327Z,7.80
2023-05-11T23:30:38.234Z,8.02
2023-05-11T23:33:05.084Z,7.40
2023-05-11T23:35:31.799Z,6.95
2023-05-11T23:37:58.527Z,6.70
2023-05-11T23:40:28.508Z,7.38
2023-05-11T23:42:55.220Z,7.38
2023-05-11T23:45:23.280Z,7.90
2023-05-11T23:47:49.962Z,6.75
2023-05-11T23:50:16.880Z,7.35
2023-05-11T23:52:43.697Z,6.57
2023-05-11T23:55:10.823Z,6.93
2023-05-11T23:57:37.439Z,6.38
